Time;durP1;ratioP1;P1;durP2;ratioP2;P2;SDS_P1;SDS_P2;PMS_P1;PMS_P2;Temp;Humidity;BMP_temperature;BMP_pressure;BME280_temperature;BME280_humidity;BME280_pressure;Samples;Min_cycle;Max_cycle;Signal;HPM_P1;HPM_P2
2022/01/28 00:01:17;;;;;;;8.40;5.40;;;;;;;1.27;86.28;98261.73;218775;1277;22594;-69
2022/01/28 00:06:22;;;;;;;6.20;4.90;;;;;;;1.28;86.13;98260.17;218797;1277;22722;-69
2022/01/28 00:11:27;;;;;;;7.50;4.80;;;;;;;1.33;86.12;98260.45;218630;1277;22561;-68
2022/01/28 00:43:05;;;;;;;5.10;3.90;;;;;;;1.54;85.20;98264.36;218742;1277;25837;-69
2022/01/28 00:48:10;;;;;;;6.00;3.50;;;;;;;1.59;85.24;98264.33;218809;1275;24411;-69
2022/01/28 00:53:19;;;;;;;6.50;4.20;;;;;;;1.63;85.06;98280.77;218976;1274;24259;-69
2022/01/28 00:58:27;;;;;;;5.30;3.50;;;;;;;1.69;85.04;98281.26;218831;1274;22551;-69
2022/01/28 01:03:30;;;;;;;4.80;3.30;;;;;;;1.73;84.64;98284.59;218911;1274;22814;-69
2022/01/28 01:08:58;;;;;;;4.90;3.40;;;;;;;1.78;84.55;98283.83;218752;1277;23738;-68
2022/01/28 01:14:00;;;;;;;5.40;3.10;;;;;;;1.81;84.41;98275.83;219054;1274;25910;-68
2022/01/28 01:25:14;;;;;;;3.20;2.60;;;;;;;1.74;83.68;98261.73;218810;1274;25368;-68
2022/01/28 01:30:18;;;;;;;4.10;3.00;;;;;;;1.59;83.75;98259.20;218822;1274;22706;-68
2022/01/28 01:35:21;;;;;;;2.90;2.40;;;;;;;1.49;83.98;98249.94;218854;1275;22710;-69
2022/01/28 01:40:34;;;;;;;3.30;2.40;;;;;;;1.48;83.99;98244.48;218709;1277;25275;-69
2022/01/28 01:52:00;;;;;;;3.60;2.30;;;;;;;1.49;84.30;98242.97;218777;1275;23436;-69
2022/01/28 01:56:33;;;;;;;3.30;2.50;;;;;;;1.60;84.26;98243.86;218715;1278;25316;-68
2022/01/28 02:01:38;;;;;;;2.90;2.30;;;;;;;1.60;84.03;98246.60;218942;1274;22582;-69
2022/01/28 02:06:42;;;;;;;3.50;2.50;;;;;;;1.58;84.00;98249.80;218895;1274;22539;-69
2022/01/28 02:11:45;;;;;;;3.50;2.50;;;;;;;1.61;84.20;98252.79;218798;1274;22531;-68
2022/01/28 02:16:47;;;;;;;3.00;2.00;;;;;;;1.63;83.97;98265.08;218933;1274;22815;-69
2022/01/28 02:21:58;;;;;;;2.20;1.60;;;;;;;1.66;84.07;98267.27;218790;1274;22601;-69
2022/01/28 02:27:26;;;;;;;1.90;1.60;;;;;;;1.69;83.99;98274.93;218851;1274;22569;-69
2022/01/28 02:32:29;;;;;;;2.90;2.20;;;;;;;1.72;83.74;98269.64;218949;1274;22724;-69
2022/01/28 02:37:37;;;;;;;2.10;1.50;;;;;;;1.74;83.78;98272.15;218608;1274;23107;-69
2022/01/28 02:42:54;;;;;;;1.60;1.10;;;;;;;1.80;83.56;98267.52;218317;1277;22556;-70
2022/01/28 02:48:04;;;;;;;1.60;1.00;;;;;;;1.87;82.96;98262.51;218745;1277;22569;-69
2022/01/28 02:53:25;;;;;;;1.70;0.90;;;;;;;1.93;82.35;98264.16;218540;1277;22577;-69
2022/01/28 02:58:35;;;;;;;2.00;1.00;;;;;;;2.02;81.54;98263.75;218896;1274;22711;-69
2022/01/28 03:03:37;;;;;;;1.70;0.70;;;;;;;2.11;81.21;98261.23;218634;1274;22560;-69
2022/01/28 03:08:46;;;;;;;0.90;0.60;;;;;;;2.18;81.03;98250.36;218696;1274;22540;-70
2022/01/28 03:19:19;;;;;;;1.70;0.50;;;;;;;2.34;80.31;98245.67;218487;1277;22566;-69
2022/01/28 03:24:33;;;;;;;0.60;0.50;;;;;;;2.40;79.42;98241.63;218423;1277;25463;-69
2022/01/28 03:29:36;;;;;;;0.30;0.30;;;;;;;2.44;79.64;98238.23;218618;1277;22595;-69
2022/01/28 03:34:41;;;;;;;1.50;0.60;;;;;;;2.45;79.17;98238.92;218621;1278;26964;-69
2022/01/28 03:39:55;;;;;;;0.70;0.40;;;;;;;2.47;78.88;98237.74;218678;1277;22592;-69
2022/01/28 03:45:01;;;;;;;1.30;0.90;;;;;;;2.50;79.00;98240.19;218752;1277;25543;-70
2022/01/28 03:50:16;;;;;;;1.20;1.00;;;;;;;2.50;78.95;98244.32;218723;1277;22704;-68
2022/01/28 03:55:23;;;;;;;2.40;0.90;;;;;;;2.50;78.91;98247.77;218722;1277;25346;-69
2022/01/28 04:00:31;;;;;;;0.90;0.80;;;;;;;2.48;78.55;98243.88;218690;1277;22714;-68
2022/01/28 04:21:06;;;;;;;2.10;0.90;;;;;;;2.38;78.41;98245.84;219075;1274;22621;-69
2022/01/28 04:26:12;;;;;;;1.10;0.80;;;;;;;2.33;78.81;98253.61;218824;1277;24253;-69
2022/01/28 04:31:28;;;;;;;1.80;0.70;;;;;;;2.20;79.53;98258.27;219037;1274;23148;-68
2022/01/28 04:36:44;;;;;;;5.70;0.90;;;;;;;2.09;80.17;98265.79;218374;1277;22729;-68
2022/01/28 04:47:30;;;;;;;1.50;0.70;;;;;;;1.75;81.50;98271.31;218602;1274;22563;-67
2022/01/28 05:03:35;;;;;;;3.20;1.10;;;;;;;1.31;84.68;98273.41;218904;1274;23064;-67
2022/01/28 05:25:45;;;;;;;2.30;1.40;;;;;;;0.93;86.75;98294.00;218689;1274;22593;-69
2022/01/28 05:30:09;;;;;;;0.80;0.50;;;;;;;0.90;86.39;98310.13;218365;1276;22803;-69
2022/01/28 05:35:17;;;;;;;1.80;0.90;;;;;;;0.86;87.48;98315.34;219026;1274;22724;-68
2022/01/28 05:40:19;;;;;;;3.30;1.30;;;;;;;0.82;87.56;98314.64;219079;1274;23984;-69
2022/01/28 05:45:24;;;;;;;3.60;1.30;;;;;;;0.78;87.57;98318.15;218996;1274;22777;-69
2022/01/28 05:50:36;;;;;;;5.80;1.20;;;;;;;0.75;87.70;98327.42;218997;1274;22733;-69
2022/01/28 05:55:41;;;;;;;4.50;1.20;;;;;;;0.71;88.10;98334.67;218934;1274;23825;-69
2022/01/28 06:00:47;;;;;;;4.00;1.40;;;;;;;0.69;88.05;98329.69;218862;1275;23756;-69
2022/01/28 06:05:52;;;;;;;1.80;1.10;;;;;;;0.69;88.00;98327.78;218988;1274;22593;-69
2022/01/28 06:10:57;;;;;;;3.20;1.00;;;;;;;0.70;88.05;98328.55;218950;1274;25263;-69
2022/01/28 06:16:46;;;;;;;2.80;0.90;;;;;;;0.75;88.52;98341.61;219044;1276;25395;-68
2022/01/28 06:22:17;;;;;;;;;;;;;;;;;;;;;
2022/01/28 06:27:41;;;;;;;4.10;0.70;;;;;;;0.92;88.82;98350.52;218911;1274;25404;-69
2022/01/28 06:32:44;;;;;;;2.70;0.90;;;;;;;1.00;88.65;98350.50;219093;1274;24261;-69
2022/01/28 06:37:47;;;;;;;3.90;1.00;;;;;;;1.01;88.55;98351.00;219244;1274;24249;-68
2022/01/28 06:42:51;;;;;;;5.90;1.30;;;;;;;1.04;88.58;98366.38;218589;1274;26446;-68
2022/01/28 06:47:59;;;;;;;2.10;1.20;;;;;;;1.09;88.59;98374.90;218788;1274;22715;-68
2022/01/28 06:53:17;;;;;;;6.80;1.70;;;;;;;1.15;88.51;98385.08;218386;1274;25501;-67
2022/01/28 06:59:02;;;;;;;2.40;0.80;;;;;;;1.21;88.31;98388.81;218389;1274;25553;-69
2022/01/28 07:04:27;;;;;;;1.90;1.00;;;;;;;1.28;88.17;98398.12;218191;1274;22553;-69
2022/01/28 07:09:29;;;;;;;3.50;1.10;;;;;;;1.36;88.22;98408.67;218255;1274;22722;-69
2022/01/28 07:14:35;;;;;;;5.90;1.70;;;;;;;1.44;87.94;98414.09;218369;1274;22573;-68
2022/01/28 07:19:38;;;;;;;4.10;1.10;;;;;;;1.50;87.67;98411.61;218653;1274;24820;-68
2022/01/28 07:24:42;;;;;;;4.80;1.30;;;;;;;1.53;87.45;98413.15;218451;1275;24244;-68
2022/01/28 07:29:58;;;;;;;4.90;0.90;;;;;;;1.59;87.29;98410.02;218190;1274;24373;-72
2022/01/28 07:35:07;;;;;;;2.10;0.90;;;;;;;1.63;86.65;98411.88;218454;1274;24878;-69
2022/01/28 07:40:20;;;;;;;3.70;1.20;;;;;;;1.69;86.22;98418.48;218230;1274;22548;-68
2022/01/28 07:45:23;;;;;;;4.50;1.40;;;;;;;1.75;86.04;98418.26;218361;1274;24284;-69
2022/01/28 07:50:33;;;;;;;5.80;1.60;;;;;;;1.84;85.41;98420.62;219009;1274;24463;-69
2022/01/28 07:55:36;;;;;;;4.30;1.30;;;;;;;1.97;84.76;98425.52;218323;1274;25530;-69
2022/01/28 08:00:38;;;;;;;3.60;1.40;;;;;;;2.06;84.39;98427.73;218287;1274;22607;-69
2022/01/28 08:05:47;;;;;;;3.40;1.50;;;;;;;2.12;83.81;98436.16;218588;1274;22545;-69
2022/01/28 08:10:52;;;;;;;3.90;1.30;;;;;;;2.16;83.56;98440.77;218134;1276;24291;-68
2022/01/28 08:15:54;;;;;;;5.30;1.50;;;;;;;2.21;83.31;98446.09;219180;1274;25700;-69
2022/01/28 08:21:00;;;;;;;5.90;1.40;;;;;;;2.27;82.93;98452.50;216081;1274;3325781;-67
2022/01/28 08:26:04;;;;;;;6.00;1.40;;;;;;;2.30;82.86;98463.04;218222;1274;22827;-67
2022/01/28 08:31:09;;;;;;;2.60;1.20;;;;;;;2.36;82.76;98469.24;218477;1274;22745;-68
2022/01/28 08:36:12;;;;;;;3.80;1.20;;;;;;;2.39;81.82;98471.03;218598;1274;22635;-67
2022/01/28 08:41:15;;;;;;;5.30;1.50;;;;;;;2.38;81.68;98479.06;218017;1274;22818;-68
2022/01/28 08:46:18;;;;;;;5.70;1.70;;;;;;;2.37;81.47;98498.50;218396;1274;22659;-67
2022/01/28 08:51:20;;;;;;;5.90;1.90;;;;;;;2.31;81.53;98504.86;218693;1274;24608;-67
2022/01/28 08:56:23;;;;;;;5.80;1.60;;;;;;;2.20;81.79;98512.19;218746;1274;25261;-67
2022/01/28 09:01:30;;;;;;;5.90;2.00;;;;;;;2.08;82.34;98520.71;218045;1274;22493;-68
2022/01/28 09:06:39;;;;;;;9.20;2.10;;;;;;;2.01;82.84;98521.59;218400;1274;25254;-67
2022/01/28 09:17:11;;;;;;;7.50;1.80;;;;;;;2.03;83.22;98525.29;218197;1274;22544;-68
2022/01/28 09:22:17;;;;;;;5.50;2.20;;;;;;;2.03;83.40;98538.88;218414;1274;25338;-70
2022/01/28 09:27:20;;;;;;;6.10;2.50;;;;;;;2.03;83.52;98542.93;218343;1274;25290;-70
2022/01/28 09:32:23;;;;;;;4.20;1.80;;;;;;;2.04;83.81;98552.62;218393;1274;26585;-69
2022/01/28 09:37:33;;;;;;;5.00;1.80;;;;;;;2.03;83.74;98561.13;218497;1274;22586;-69
2022/01/28 09:42:37;;;;;;;6.70;1.70;;;;;;;2.01;84.05;98559.39;218525;1274;22542;-69
2022/01/28 09:47:40;;;;;;;7.90;2.20;;;;;;;1.99;84.00;98568.75;218321;1274;22563;-69
2022/01/28 09:52:43;;;;;;;7.80;2.00;;;;;;;1.94;84.34;98572.04;220621;1274;22713;-68
2022/01/28 09:57:51;;;;;;;7.00;2.70;;;;;;;1.91;84.45;98576.32;218181;1276;22576;-69
2022/01/28 10:03:01;;;;;;;3.40;1.50;;;;;;;1.89;84.71;98577.98;218644;1274;23077;-68
2022/01/28 10:08:17;;;;;;;6.80;2.10;;;;;;;1.89;85.23;98580.77;218695;1274;22563;-69
2022/01/28 10:13:28;;;;;;;5.20;1.90;;;;;;;1.91;85.31;98586.52;218103;1274;22703;-69
2022/01/28 10:18:54;;;;;;;8.00;2.40;;;;;;;1.92;85.55;98589.17;218317;1274;24242;-69
2022/01/28 10:24:01;;;;;;;9.20;2.10;;;;;;;1.93;85.65;98598.46;218519;1274;22624;-70
2022/01/28 10:29:39;;;;;;;6.00;2.30;;;;;;;1.92;85.79;98600.75;218299;1276;22683;-68
2022/01/28 10:34:57;;;;;;;4.60;1.50;;;;;;;1.96;86.07;98607.11;218326;1274;24917;-69
2022/01/28 10:40:14;;;;;;;6.40;1.80;;;;;;;1.99;86.23;98607.92;218501;1274;23116;-71
2022/01/28 10:45:31;;;;;;;8.10;1.60;;;;;;;2.04;86.22;98613.88;218318;1274;25395;-70
2022/01/28 10:50:50;;;;;;;5.50;1.60;;;;;;;2.09;86.16;98619.20;220221;1274;27926;-76
2022/01/28 10:56:00;;;;;;;5.70;1.90;;;;;;;2.13;86.12;98619.85;220291;1274;22714;-70
2022/01/28 11:01:13;;;;;;;6.10;1.50;;;;;;;2.19;86.10;98621.08;218552;1274;26001;-70
2022/01/28 11:06:21;;;;;;;5.50;2.10;;;;;;;2.27;86.19;98636.48;218343;1274;23975;-70
2022/01/28 11:11:32;;;;;;;4.20;1.90;;;;;;;2.33;86.19;98633.98;218549;1274;25598;-69
2022/01/28 11:16:43;;;;;;;6.60;2.10;;;;;;;2.36;85.95;98632.20;218364;1274;25424;-69
2022/01/28 11:22:11;;;;;;;6.80;2.60;;;;;;;2.36;86.18;98644.25;220281;1274;22515;-69
2022/01/28 11:27:31;;;;;;;10.10;2.90;;;;;;;2.32;86.13;98659.63;220154;1274;25416;-69
2022/01/28 11:32:59;;;;;;;8.10;2.40;;;;;;;2.23;86.41;98664.90;218764;1276;22648;-70
2022/01/28 11:38:33;;;;;;;10.80;1.90;;;;;;;2.14;86.64;98677.09;218565;1274;22551;-69
2022/01/28 11:43:58;;;;;;;5.50;1.80;;;;;;;1.99;86.99;98692.09;218298;1276;24829;-70
2022/01/28 11:49:29;;;;;;;7.80;1.90;;;;;;;1.78;87.30;98701.45;218527;1275;25473;-72
2022/01/28 11:54:48;;;;;;;;;;;;;;;;;;;;;
2022/01/28 12:01:15;;;;;;;;;;;;;;;;;;;;;
2022/01/28 12:06:51;;;;;;;8.50;2.10;;;;;;;1.40;88.90;98719.94;220123;1274;22766;-72
2022/01/28 12:12:25;;;;;;;8.90;2.60;;;;;;;1.42;89.69;98725.79;220320;1274;25425;-73
2022/01/28 12:18:09;;;;;;;8.60;2.80;;;;;;;1.45;90.03;98727.85;220348;1274;23135;-71
2022/01/28 12:23:48;;;;;;;6.20;2.70;;;;;;;1.52;90.02;98731.69;220318;1275;24254;-72
2022/01/28 12:29:08;;;;;;;6.90;2.40;;;;;;;1.59;90.33;98746.40;220199;1277;22547;-73
2022/01/28 12:34:56;;;;;;;8.80;2.90;;;;;;;1.60;90.64;98749.64;220327;1277;22579;-72
2022/01/28 12:40:48;;;;;;;8.00;2.80;;;;;;;1.62;91.10;98763.90;219886;1276;22668;-71
2022/01/28 12:46:38;;;;;;;8.80;3.30;;;;;;;1.67;90.92;98767.14;220306;1276;22581;-71
2022/01/28 12:52:17;;;;;;;8.90;3.50;;;;;;;1.75;91.08;98767.67;220118;1277;24440;-72
2022/01/28 12:57:48;;;;;;;9.70;3.50;;;;;;;1.79;91.12;98772.56;220009;1276;25270;-70
2022/01/28 13:03:33;;;;;;;10.30;3.60;;;;;;;1.80;91.10;98787.07;220159;1277;22545;-72
2022/01/28 13:08:46;;;;;;;10.20;3.60;;;;;;;1.82;91.08;98795.56;220016;1277;25553;-73
2022/01/28 13:14:20;;;;;;;9.60;3.00;;;;;;;1.85;91.20;98808.16;219826;1276;22555;-72
2022/01/28 13:20:27;;;;;;;12.30;4.00;;;;;;;1.89;91.21;98812.94;220028;1276;22659;-73
2022/01/28 13:33:35;;;;;;;10.90;3.40;;;;;;;1.91;91.07;98833.75;220048;1275;24131;-73
2022/01/28 13:38:58;;;;;;;14.40;3.20;;;;;;;1.92;90.93;98839.54;220061;1277;24469;-72
2022/01/28 13:44:53;;;;;;;14.60;3.00;;;;;;;1.95;90.90;98844.77;220071;1276;25265;-72
2022/01/28 13:50:23;;;;;;;10.40;2.70;;;;;;;1.99;90.77;98845.45;220179;1277;22604;-71
2022/01/28 13:56:11;;;;;;;10.90;2.90;;;;;;;2.01;90.59;98851.20;220139;1274;22735;-71
2022/01/28 14:01:48;;;;;;;;;;;;;;;;;;;;;
2022/01/28 14:14:47;;;;;;;13.50;3.50;;;;;;;2.03;89.54;98875.09;220528;1274;22817;-72
2022/01/28 14:20:23;;;;;;;12.10;2.70;;;;;;;2.01;89.45;98887.40;219820;1274;22696;-72
2022/01/28 14:26:16;;;;;;;;;;;;;;;;;;;;;
2022/01/28 14:31:30;;;;;;;8.30;3.00;;;;;;;1.92;89.17;98899.13;220145;1274;22623;-72
2022/01/28 14:36:49;;;;;;;11.20;2.80;;;;;;;1.87;89.34;98915.02;220252;1274;25355;-72
2022/01/28 14:49:33;;;;;;;10.60;3.00;;;;;;;1.84;89.43;98933.77;220090;1274;24347;-71
2022/01/28 14:55:19;;;;;;;9.90;2.40;;;;;;;1.84;89.12;98944.54;220165;1274;22693;-72
2022/01/28 15:01:41;;;;;;;;;;;;;;;;;;;;;
2022/01/28 15:07:57;;;;;;;13.30;3.40;;;;;;;1.78;89.03;98956.86;220036;1275;22743;-72
2022/01/28 15:13:49;;;;;;;11.40;3.30;;;;;;;1.74;89.02;98963.79;219548;1277;24252;-72
2022/01/28 15:20:21;;;;;;;10.50;3.20;;;;;;;1.69;89.07;98971.61;219891;1274;22569;-72
2022/01/28 15:38:46;;;;;;;;;;;;;;;;;;;;;
2022/01/28 15:44:31;;;;;;;;;;;;;;;;;;;;;
2022/01/28 15:49:53;;;;;;;9.50;3.40;;;;;;;1.52;89.37;99022.81;219614;1276;24266;-71
2022/01/28 15:56:12;;;;;;;17.60;5.10;;;;;;;1.52;89.35;99026.96;219221;1277;23699;-72
2022/01/28 16:01:50;;;;;;;14.20;3.50;;;;;;;1.54;89.33;99039.17;219566;1277;25320;-72
2022/01/28 16:07:25;;;;;;;;;;;;;;;;;;;;;
2022/01/28 16:13:40;;;;;;;12.60;3.70;;;;;;;1.57;89.09;99068.17;219714;1277;22656;-72
2022/01/28 16:19:41;;;;;;;8.30;3.00;;;;;;;1.54;89.16;99067.29;219521;1276;24422;-71
2022/01/28 16:26:07;;;;;;;12.90;4.50;;;;;;;1.53;89.12;99074.75;219787;1274;24286;-71
2022/01/28 16:32:36;;;;;;;10.00;3.10;;;;;;;1.54;88.81;99088.23;219497;1276;24516;-72
2022/01/28 16:38:02;;;;;;;8.70;3.00;;;;;;;1.57;88.75;99101.20;219408;1276;22604;-72
2022/01/28 16:43:45;;;;;;;;;;;;;;;;;;;;;
2022/01/28 16:49:08;;;;;;;10.00;3.40;;;;;;;1.62;88.38;99125.78;219606;1277;22553;-71
2022/01/28 16:55:04;;;;;;;9.10;3.00;;;;;;;1.62;88.16;99133.13;219853;1274;22806;-72
2022/01/28 17:00:53;;;;;;;9.90;3.10;;;;;;;1.61;87.79;99137.85;219551;1277;25460;-72
2022/01/28 17:13:27;;;;;;;12.80;3.70;;;;;;;1.62;87.57;99157.91;219453;1277;22544;-71
2022/01/28 17:19:24;;;;;;;;;;;;;;;;;;;;;
2022/01/28 17:25:16;;;;;;;10.30;3.10;;;;;;;1.70;87.48;99167.00;219758;1277;26452;-72
2022/01/28 17:31:25;;;;;;;10.40;3.50;;;;;;;1.73;87.00;99178.96;219862;1275;22590;-71
2022/01/28 17:42:31;;;;;;;11.00;3.10;;;;;;;1.67;86.36;99181.29;219859;1275;22576;-72
2022/01/28 17:48:18;;;;;;;;;;;;;;;;;;;;;
2022/01/28 18:00:46;;;;;;;9.90;2.80;;;;;;;1.39;85.37;99209.30;219957;1274;25571;-72
2022/01/28 18:06:42;;;;;;;10.80;3.00;;;;;;;1.37;85.62;99211.45;219901;1274;25382;-71
2022/01/28 18:11:58;;;;;;;7.20;2.20;;;;;;;1.43;85.52;99231.34;219876;1275;22666;-71
2022/01/28 18:17:06;;;;;;;7.20;2.20;;;;;;;1.32;85.06;99234.43;220023;1274;25265;-72
2022/01/28 18:22:19;;;;;;;5.90;2.10;;;;;;;1.09;84.96;99236.54;220028;1274;22614;-72
2022/01/28 18:27:54;;;;;;;4.90;2.00;;;;;;;0.90;85.10;99234.56;219953;1276;22548;-72
2022/01/28 18:33:38;;;;;;;;;;;;;;;;;;;;;
2022/01/28 18:39:38;;;;;;;8.00;2.40;;;;;;;0.69;85.25;99243.21;219941;1274;22685;-72
2022/01/28 18:45:24;;;;;;;;;;;;;;;;;;;;;
2022/01/28 18:50:40;;;;;;;6.80;2.20;;;;;;;0.63;84.45;99258.66;219819;1274;22558;-71
2022/01/28 19:02:30;;;;;;;5.60;2.10;;;;;;;0.69;83.20;99299.27;219891;1274;22615;-71
2022/01/28 19:14:30;;;;;;;4.30;1.50;;;;;;;0.83;81.89;99330.98;219849;1277;22557;-73
2022/01/28 19:20:27;;;;;;;;;;;;;;;;;;;;;
2022/01/28 19:26:14;;;;;;;3.30;1.70;;;;;;;0.55;82.19;99357.52;219811;1277;25367;-72
2022/01/28 19:32:50;;;;;;;3.50;1.60;;;;;;;0.24;82.91;99369.39;219492;1277;22547;-72
2022/01/28 19:38:40;;;;;;;3.30;1.70;;;;;;;0.03;83.34;99378.75;219432;1277;24252;-71
2022/01/28 19:45:17;;;;;;;8.20;3.40;;;;;;;-0.06;83.70;99396.70;219580;1277;25562;-72
2022/01/28 19:51:01;;;;;;;3.60;1.40;;;;;;;-0.10;83.97;99398.73;219729;1278;22654;-72
2022/01/28 19:56:53;;;;;;;3.30;1.20;;;;;;;0.01;83.59;99401.52;219665;1278;22592;-71
2022/01/28 20:02:49;;;;;;;3.10;1.50;;;;;;;0.15;82.94;99410.35;219810;1277;25676;-72
2022/01/28 20:08:30;;;;;;;3.30;1.50;;;;;;;0.26;81.39;99433.86;219704;1277;24241;-72
2022/01/28 20:14:08;;;;;;;2.50;0.90;;;;;;;0.34;80.82;99440.02;219877;1274;24172;-71
2022/01/28 20:25:43;;;;;;;;;;;;;;;0.31;79.65;99461.05;219954;1274;24263;-72
2022/01/28 20:31:23;;;;;;;;;;;;;;;;;;;;;
2022/01/28 20:37:29;;;;;;;;;;;;;;;;;;;;;
2022/01/28 20:43:35;;;;;;;2.80;0.90;;;;;;;0.17;79.23;99480.58;219853;1274;23062;-72
2022/01/28 20:49:05;;;;;;;;;;;;;;;;;;;;;
2022/01/28 20:55:09;;;;;;;2.60;0.90;;;;;;;0.11;78.98;99493.46;219892;1274;22605;-71
2022/01/28 21:01:15;;;;;;;;;;;;;;;;;;;;;
2022/01/28 21:12:56;;;;;;;3.50;1.20;;;;;;;0.15;78.77;99523.89;219542;1277;25486;-72
2022/01/28 21:18:43;;;;;;;;;;;;;;;;;;;;;
2022/01/28 21:24:48;;;;;;;4.40;2.10;;;;;;;0.15;78.70;99537.35;219799;1277;24382;-72
2022/01/28 21:30:28;;;;;;;4.80;1.40;;;;;;;0.12;78.78;99535.81;219861;1274;22545;-71
2022/01/28 21:35:59;;;;;;;3.90;1.50;;;;;;;0.01;78.97;99549.21;219544;1277;22730;-72
2022/01/28 21:48:03;;;;;;;;;;;;;;;;;;;;;
2022/01/28 21:54:22;;;;;;;6.90;2.00;;;;;;;-0.17;78.67;99592.34;219497;1277;22576;-71
2022/01/28 21:59:55;;;;;;;4.00;1.60;;;;;;;-0.18;78.59;99590.49;219526;1276;26510;-72
2022/01/28 22:06:36;;;;;;;4.40;2.00;;;;;;;-0.12;78.86;99589.63;219863;1274;25391;-72
2022/01/28 22:12:21;;;;;;;6.30;1.90;;;;;;;-0.02;78.92;99593.02;219929;1274;25684;-72
2022/01/28 22:18:49;;;;;;;;;;;;;;;;;;;;;
2022/01/28 22:24:19;;;;;;;;;;;;;;;;;;;;;
2022/01/28 22:30:13;;;;;;;;;;;;;;;;;;;;;
2022/01/28 22:36:10;;;;;;;5.20;2.30;;;;;;;0.30;77.86;99599.81;219591;1277;22561;-72
2022/01/28 22:42:34;;;;;;;5.60;1.50;;;;;;;0.31;77.90;99603.30;219615;1277;22637;-72
2022/01/28 22:48:01;;;;;;;4.50;1.20;;;;;;;0.31;77.73;99607.67;219419;1277;24714;-70
2022/01/28 22:53:47;;;;;;;;;;;;;;;;;;;;;
2022/01/28 22:59:54;;;;;;;;;;;;;;;;;;;;;
2022/01/28 23:05:48;;;;;;;5.40;1.20;;;;;;;0.30;77.42;99620.52;219874;1277;22572;-72
2022/01/28 23:17:20;;;;;;;3.20;1.20;;;;;;;0.29;77.15;99628.84;219832;1277;22572;-71
2022/01/28 23:23:19;;;;;;;;;;;;;;;;;;;;;
2022/01/28 23:29:24;;;;;;;;;;;;;;;;;;;;;
2022/01/28 23:42:01;;;;;;;4.50;1.50;;;;;;;-0.26;77.04;99641.52;219537;1277;22616;-72
2022/01/28 23:48:12;;;;;;;;;;;;;;;;;;;;;
2022/01/28 23:54:39;;;;;;;4.00;1.70;;;;;;;-0.64;77.45;99650.95;219695;1277;22702;-71
